28°C Temp
19°C Dewpoint
58% Humidity
Temperature
5 KM/H
3 MPH
3 KTS
170°
Due South

Wind Speed
Clear
Conditions
Pressure 1013.92 (hPa) - 29.94 (in)
Visibility 6.2 (mi) - 10.0 (km)

Current Conditions
EPRZ
Location 9(km)
Metar :EPRZ 291830Z 17003KT CAVOK 28/19 Q1014
Wed 29th June 21:30 pm

Airport